createdAt,value
2022-10-30T00:02:23.587Z,45.63
2022-10-30T00:05:01.071Z,42.42
2022-10-30T00:07:34.617Z,40.30
2022-10-30T00:10:12.842Z,43.85
2022-10-30T00:13:00.461Z,44.33
2022-10-30T00:15:44.173Z,45.15
2022-10-30T00:18:33.437Z,42.25
2022-10-30T00:21:26.576Z,48.17
2022-10-30T00:24:15.570Z,43.38
2022-10-30T00:26:58.947Z,44.83
2022-10-30T00:29:50.430Z,42.63
2022-10-30T00:32:28.603Z,47.67
2022-10-30T00:35:12.426Z,47.17
2022-10-30T00:37:53.939Z,44.65
2022-10-30T00:40:45.487Z,45.20
2022-10-30T00:44:06.703Z,41.40
2022-10-30T00:46:59.181Z,39.95
2022-10-30T00:49:35.238Z,41.22
2022-10-30T00:52:14.785Z,43.33
2022-10-30T00:54:58.187Z,42.85
2022-10-30T00:57:48.618Z,47.63
2022-10-30T01:00:33.886Z,45.38
2022-10-30T01:03:22.362Z,45.42
2022-10-30T01:06:08.698Z,45.05
2022-10-30T01:08:57.053Z,43.97
2022-10-30T01:11:43.745Z,46.45
2022-10-30T01:14:33.487Z,46.45
2022-10-30T01:17:56.696Z,48.45
2022-10-30T01:21:08.148Z,46.10
2022-10-30T01:24:12.079Z,42.53
2022-10-30T01:27:09.084Z,45.45
2022-10-30T01:30:16.267Z,42.67
2022-10-30T01:33:31.528Z,42.47
2022-10-30T01:36:41.856Z,42.22
2022-10-30T01:39:39.550Z,44.10
2022-10-30T01:42:50.808Z,44.45
2022-10-30T01:46:09.208Z,40.75
2022-10-30T01:49:36.328Z,41.08
2022-10-30T01:52:30.357Z,43.25
2022-10-30T01:55:39.475Z,43.65
2022-10-30T01:58:49.818Z,44.13
2022-10-30T02:01:32.955Z,43.30
2022-10-30T02:04:34.197Z,45.10
2022-10-30T02:07:12.872Z,40.83
2022-10-30T02:10:00.477Z,44.25
2022-10-30T02:12:45.048Z,40.78
2022-10-30T02:15:33.780Z,44.70
2022-10-30T02:18:22.062Z,43.92
2022-10-30T02:21:09.156Z,43.33
2022-10-30T02:23:59.986Z,41.50
2022-10-30T02:26:43.232Z,43.35
2022-10-30T02:29:24.496Z,43.42
2022-10-30T02:32:07.658Z,46.13
2022-10-30T02:34:49.017Z,42.90
2022-10-30T02:37:32.292Z,44.17
2022-10-30T02:40:09.637Z,41.80
2022-10-30T02:43:03.252Z,40.55
2022-10-30T02:45:52.665Z,41.70
2022-10-30T02:48:37.031Z,44.30
2022-10-30T02:51:17.910Z,40.03
2022-10-30T02:54:08.503Z,41.80
2022-10-30T02:56:52.427Z,39.85
2022-10-30T02:59:35.307Z,39.28
2022-10-30T03:02:12.576Z,36.55
2022-10-30T03:04:56.433Z,39.95
2022-10-30T03:07:48.793Z,45.30
2022-10-30T03:16:27.516Z,42.53
2022-10-30T03:19:11.243Z,41.85
2022-10-30T03:21:55.063Z,43.60
2022-10-30T03:24:38.348Z,47.25
2022-10-30T03:27:22.026Z,43.30
2022-10-30T03:32:44.498Z,43.15
2022-10-30T03:35:31.531Z,45.40
2022-10-30T03:38:14.444Z,45.33
2022-10-30T03:41:04.469Z,47.30
2022-10-30T03:43:49.410Z,53.30
2022-10-30T03:46:28.138Z,48.83
2022-10-30T03:49:27.624Z,48.50
2022-10-30T03:52:12.942Z,49.40
2022-10-30T03:54:56.415Z,48.65
2022-10-30T03:57:34.893Z,47.28
2022-10-30T04:00:21.896Z,49.67
2022-10-30T04:03:12.871Z,48.83
2022-10-30T04:05:57.338Z,52.25
2022-10-30T04:08:40.020Z,53.92
2022-10-30T04:11:21.248Z,48.35
2022-10-30T04:14:05.536Z,48.45
2022-10-30T04:16:50.106Z,44.38
2022-10-30T04:19:30.856Z,47.17
2022-10-30T04:22:18.125Z,49.65
2022-10-30T04:25:00.909Z,52.53
2022-10-30T04:27:57.690Z,50.25
2022-10-30T04:30:43.288Z,51.50
2022-10-30T04:33:29.950Z,51.92
2022-10-30T04:36:21.527Z,51.53
2022-10-30T04:39:13.376Z,54.67
2022-10-30T04:42:04.510Z,49.20
2022-10-30T04:44:53.894Z,51.35
2022-10-30T04:47:41.506Z,51.03
2022-10-30T04:50:21.740Z,47.72
2022-10-30T04:53:17.478Z,47.33
2022-10-30T04:56:08.682Z,51.45
2022-10-30T04:59:02.623Z,51.45
2022-10-30T05:01:38.541Z,55.38
2022-10-30T05:04:23.478Z,48.28
2022-10-30T05:07:10.092Z,53.95
2022-10-30T05:09:51.027Z,50.33
2022-10-30T05:12:40.525Z,53.50
2022-10-30T05:15:16.285Z,53.60
2022-10-30T05:17:58.444Z,49.30
2022-10-30T05:20:38.922Z,46.63
2022-10-30T05:23:33.697Z,49.53
2022-10-30T05:26:16.805Z,45.65
2022-10-30T05:29:03.527Z,42.78
2022-10-30T05:31:54.648Z,44.03
2022-10-30T05:35:01.498Z,44.28
2022-10-30T05:37:39.817Z,41.22
2022-10-30T05:40:23.669Z,39.47
2022-10-30T05:42:59.630Z,37.63
2022-10-30T05:45:45.534Z,36.42
2022-10-30T05:48:35.477Z,36.50
2022-10-30T05:51:17.481Z,35.30
2022-10-30T05:54:05.107Z,35.97
2022-10-30T05:56:55.498Z,36.03
2022-10-30T05:59:38.951Z,34.50
2022-10-30T06:02:25.468Z,37.85
2022-10-30T06:05:12.970Z,35.92
2022-10-30T06:07:59.660Z,34.63
2022-10-30T06:10:45.745Z,34.38
2022-10-30T06:13:40.116Z,31.60
2022-10-30T06:16:27.615Z,34.03
2022-10-30T06:19:38.727Z,34.17
2022-10-30T06:22:42.486Z,34.60
2022-10-30T06:25:41.053Z,34.50
2022-10-30T06:28:35.268Z,33.67
2022-10-30T06:31:27.184Z,31.05
2022-10-30T06:34:08.512Z,31.45
2022-10-30T06:39:30.683Z,29.90
2022-10-30T06:42:59.649Z,33.17
2022-10-30T06:46:02.270Z,32.85
2022-10-30T06:48:46.311Z,34.47
2022-10-30T06:51:33.605Z,29.58
2022-10-30T06:54:09.931Z,28.98
2022-10-30T06:56:53.473Z,33.22
2022-10-30T06:59:59.917Z,32.33
2022-10-30T07:02:48.467Z,32.50
2022-10-30T07:05:44.583Z,28.85
2022-10-30T07:08:24.502Z,30.80
2022-10-30T07:11:11.381Z,30.02
2022-10-30T07:14:08.341Z,28.75
2022-10-30T07:17:00.151Z,27.98
2022-10-30T07:19:40.420Z,29.13
2022-10-30T07:22:18.204Z,29.13
2022-10-30T07:25:00.878Z,28.90
2022-10-30T07:27:59.007Z,27.80
2022-10-30T07:31:06.802Z,27.45
2022-10-30T07:34:08.078Z,27.88
2022-10-30T07:37:21.160Z,27.13
2022-10-30T07:40:20.579Z,27.27
2022-10-30T07:43:17.436Z,25.77
2022-10-30T07:45:58.488Z,26.10
2022-10-30T07:49:06.732Z,27.38
2022-10-30T07:52:17.425Z,26.15
2022-10-30T07:55:06.596Z,25.83
2022-10-30T07:58:11.637Z,24.45
2022-10-30T08:01:31.825Z,25.55
2022-10-30T08:04:19.809Z,25.55
2022-10-30T08:07:10.470Z,25.17
2022-10-30T08:09:53.600Z,24.73
2022-10-30T08:12:42.806Z,23.17
2022-10-30T08:15:33.490Z,25.13
2022-10-30T08:18:16.162Z,24.83
2022-10-30T08:21:02.486Z,22.00
2022-10-30T08:23:56.847Z,23.75
2022-10-30T08:26:38.491Z,25.05
2022-10-30T08:29:22.435Z,22.95
2022-10-30T08:32:07.566Z,23.48
2022-10-30T08:35:09.455Z,23.52
2022-10-30T08:37:53.279Z,22.45
2022-10-30T08:40:39.511Z,21.88
2022-10-30T08:43:24.532Z,22.70
2022-10-30T08:46:16.589Z,25.77
2022-10-30T08:48:55.688Z,23.67
2022-10-30T08:51:36.634Z,21.00
2022-10-30T08:54:14.473Z,21.65
2022-10-30T08:56:56.383Z,23.27
2022-10-30T08:59:41.124Z,21.73
2022-10-30T09:02:19.736Z,21.67
2022-10-30T09:05:25.119Z,21.73
2022-10-30T09:08:28.472Z,26.13
2022-10-30T09:11:40.985Z,21.27
2022-10-30T09:14:33.441Z,22.55
2022-10-30T09:17:16.464Z,21.27
2022-10-30T09:19:57.500Z,20.40
2022-10-30T09:22:57.853Z,21.13
2022-10-30T09:25:39.739Z,16.98
2022-10-30T09:28:37.081Z,18.85
2022-10-30T09:31:40.231Z,18.88
2022-10-30T09:37:15.945Z,18.50
2022-10-30T09:40:04.550Z,16.67
2022-10-30T09:43:05.300Z,16.33
2022-10-30T09:45:50.107Z,17.75
2022-10-30T09:48:33.481Z,19.77
2022-10-30T09:51:25.509Z,17.75
2022-10-30T09:54:35.601Z,18.58
2022-10-30T09:57:29.730Z,17.42
2022-10-30T10:00:18.507Z,16.52
2022-10-30T10:03:28.266Z,17.55
2022-10-30T10:06:27.384Z,17.67
2022-10-30T10:09:27.306Z,18.15
2022-10-30T10:12:37.758Z,18.50
2022-10-30T10:17:50.706Z,16.83
2022-10-30T10:20:47.310Z,19.33
2022-10-30T10:23:59.673Z,18.80
2022-10-30T10:26:54.532Z,17.73
2022-10-30T10:29:54.625Z,19.20
2022-10-30T10:33:03.967Z,19.92
2022-10-30T10:35:54.485Z,18.08
2022-10-30T10:38:50.636Z,18.77
2022-10-30T10:41:32.231Z,19.35
2022-10-30T10:44:27.354Z,17.70
2022-10-30T10:47:23.467Z,18.13
2022-10-30T10:50:19.231Z,17.40
2022-10-30T10:53:32.484Z,18.00
2022-10-30T10:56:14.155Z,18.83
2022-10-30T10:59:10.659Z,18.52
2022-10-30T11:02:16.753Z,18.20
2022-10-30T11:05:04.354Z,17.60
2022-10-30T11:07:49.737Z,18.02
2022-10-30T11:10:26.335Z,18.58
2022-10-30T11:13:03.328Z,18.75
2022-10-30T11:15:57.293Z,20.33
2022-10-30T11:18:35.484Z,17.75
2022-10-30T11:21:09.911Z,19.08
2022-10-30T11:23:49.492Z,17.70
2022-10-30T11:26:27.160Z,20.08
2022-10-30T11:29:25.108Z,18.98
2022-10-30T11:32:17.750Z,18.30
2022-10-30T11:35:13.932Z,17.25
2022-10-30T11:38:17.174Z,19.55
2022-10-30T11:41:02.287Z,19.23
2022-10-30T11:43:42.458Z,18.52
2022-10-30T11:46:24.187Z,20.42
2022-10-30T11:48:57.079Z,19.70
2022-10-30T11:51:37.617Z,21.13
2022-10-30T11:54:23.741Z,21.15
2022-10-30T11:56:51.473Z,20.48
2022-10-30T11:59:29.508Z,19.23
2022-10-30T12:02:29.339Z,18.58
2022-10-30T12:05:26.106Z,20.40
2022-10-30T12:08:18.603Z,21.15
2022-10-30T12:11:06.459Z,19.20
2022-10-30T12:13:58.076Z,20.67
2022-10-30T12:16:36.292Z,19.58
2022-10-30T12:19:16.445Z,19.67
2022-10-30T12:21:54.550Z,19.38
2022-10-30T12:24:43.029Z,20.40
2022-10-30T12:27:22.508Z,19.45
2022-10-30T12:30:11.776Z,20.10
2022-10-30T12:33:05.891Z,20.98
2022-10-30T12:36:02.541Z,20.63
2022-10-30T12:38:47.477Z,20.88
2022-10-30T12:41:42.503Z,21.75
2022-10-30T12:44:38.131Z,22.17
2022-10-30T12:47:31.492Z,20.92
2022-10-30T12:50:31.587Z,21.05
2022-10-30T12:53:32.333Z,22.40
2022-10-30T12:56:33.264Z,22.48
2022-10-30T12:59:33.142Z,21.33
2022-10-30T13:02:21.086Z,22.92
2022-10-30T13:05:01.656Z,22.90
2022-10-30T13:08:01.507Z,22.63
2022-10-30T13:10:46.185Z,22.75
2022-10-30T13:13:36.364Z,24.17
2022-10-30T13:16:16.400Z,25.42
2022-10-30T13:18:50.822Z,24.60
2022-10-30T13:21:52.249Z,24.52
2022-10-30T13:24:44.422Z,24.45
2022-10-30T13:27:32.010Z,25.42
2022-10-30T13:30:16.488Z,26.30
2022-10-30T13:33:10.862Z,23.70
2022-10-30T13:35:58.848Z,26.27
2022-10-30T13:39:00.116Z,25.88
2022-10-30T13:42:26.606Z,26.95
2022-10-30T13:45:29.176Z,26.90
2022-10-30T13:48:44.575Z,25.75
2022-10-30T13:51:51.588Z,25.85
2022-10-30T13:54:38.472Z,26.88
2022-10-30T13:57:17.588Z,28.50
2022-10-30T13:59:55.470Z,26.38
2022-10-30T14:02:48.888Z,26.65
2022-10-30T14:05:49.714Z,24.08
2022-10-30T14:09:00.968Z,24.95
2022-10-30T14:11:40.492Z,24.55
2022-10-30T14:14:51.707Z,26.55
2022-10-30T14:17:23.869Z,27.00
2022-10-30T14:20:52.209Z,29.15
2022-10-30T14:23:37.315Z,27.92
2022-10-30T14:26:26.022Z,25.88
2022-10-30T14:29:27.079Z,27.20
2022-10-30T14:32:19.825Z,28.98
2022-10-30T14:35:30.956Z,28.52
2022-10-30T14:38:43.684Z,27.20
2022-10-30T14:41:40.884Z,26.25
2022-10-30T14:44:36.429Z,23.80
2022-10-30T14:47:22.392Z,25.50
2022-10-30T14:50:17.434Z,24.98
2022-10-30T14:56:49.486Z,25.13
2022-10-30T14:59:37.679Z,24.20
2022-10-30T15:02:41.476Z,28.50
2022-10-30T15:05:35.183Z,28.40
2022-10-30T15:08:48.808Z,28.27
2022-10-30T15:11:40.819Z,31.75
2022-10-30T15:14:52.560Z,30.13
2022-10-30T15:17:58.926Z,32.30
2022-10-30T15:20:42.384Z,28.33
2022-10-30T15:23:39.040Z,29.55
2022-10-30T15:26:29.719Z,29.75
2022-10-30T15:29:19.861Z,30.95
2022-10-30T15:32:30.928Z,30.42
2022-10-30T15:35:25.683Z,29.80
2022-10-30T15:38:10.399Z,29.13
2022-10-30T15:40:51.638Z,32.83
2022-10-30T15:43:34.831Z,35.90
2022-10-30T15:46:27.093Z,32.08
2022-10-30T15:49:12.681Z,29.95
2022-10-30T15:51:56.865Z,29.13
2022-10-30T15:54:44.057Z,33.45
2022-10-30T15:58:06.480Z,41.72
2022-10-30T16:00:54.522Z,32.33
2022-10-30T16:03:36.287Z,29.50
2022-10-30T16:06:22.452Z,28.23
2022-10-30T16:09:06.914Z,31.50
2022-10-30T16:11:50.357Z,29.15
2022-10-30T16:14:32.896Z,28.55
2022-10-30T16:17:10.413Z,29.30
2022-10-30T16:20:06.292Z,27.88
2022-10-30T16:22:45.293Z,25.50
2022-10-30T16:25:29.992Z,25.98
2022-10-30T16:28:32.670Z,28.23
2022-10-30T16:31:22.315Z,27.35
2022-10-30T16:34:09.343Z,29.95
2022-10-30T16:36:47.210Z,30.77
2022-10-30T16:39:22.612Z,30.05
2022-10-30T16:42:04.696Z,29.45
2022-10-30T16:44:43.737Z,28.33
2022-10-30T16:47:26.975Z,28.70
2022-10-30T16:50:15.341Z,29.67
2022-10-30T16:53:10.849Z,29.35
2022-10-30T16:55:49.418Z,27.67
2022-10-30T16:58:28.714Z,28.35
2022-10-30T17:01:16.533Z,28.75
2022-10-30T17:04:01.492Z,29.48
2022-10-30T17:06:52.953Z,29.05
2022-10-30T17:09:45.054Z,28.65
2022-10-30T17:12:35.305Z,32.80
2022-10-30T17:15:34.019Z,28.73
2022-10-30T17:18:43.731Z,29.17
2022-10-30T17:21:43.746Z,27.75
2022-10-30T17:24:33.312Z,32.20
2022-10-30T17:27:25.704Z,31.13
2022-10-30T17:30:22.547Z,29.98
2022-10-30T17:35:58.921Z,29.33
2022-10-30T17:38:50.672Z,32.53
2022-10-30T17:41:31.599Z,32.10
2022-10-30T17:44:29.491Z,32.10
2022-10-30T17:47:37.836Z,30.98
2022-10-30T17:50:22.038Z,34.40
2022-10-30T17:55:51.680Z,32.90
2022-10-30T17:58:44.829Z,33.58
2022-10-30T18:01:27.770Z,31.88
2022-10-30T18:03:57.718Z,34.83
2022-10-30T18:06:37.889Z,33.50
2022-10-30T18:09:15.927Z,34.03
2022-10-30T18:12:00.526Z,35.13
2022-10-30T18:14:45.905Z,33.90
2022-10-30T18:17:26.634Z,36.22
2022-10-30T18:20:11.123Z,35.40
2022-10-30T18:22:49.109Z,34.00
2022-10-30T18:25:36.893Z,36.58
2022-10-30T18:28:24.291Z,39.03
2022-10-30T18:31:01.854Z,38.00
2022-10-30T18:33:41.508Z,40.28
2022-10-30T18:36:31.874Z,37.40
2022-10-30T18:39:23.846Z,35.47
2022-10-30T18:44:52.282Z,37.17
2022-10-30T18:47:39.567Z,41.60
2022-10-30T18:50:28.072Z,39.30
2022-10-30T18:53:04.172Z,39.00
2022-10-30T18:55:44.937Z,38.47
2022-10-30T18:58:23.725Z,38.83
2022-10-30T19:01:24.913Z,37.10
2022-10-30T19:04:21.848Z,44.33
2022-10-30T19:07:00.521Z,42.78
2022-10-30T19:09:47.111Z,42.55
2022-10-30T19:12:24.473Z,43.50
2022-10-30T19:15:16.417Z,43.15
2022-10-30T19:17:57.825Z,43.22
2022-10-30T19:21:03.948Z,42.60
2022-10-30T19:23:48.419Z,42.47
2022-10-30T19:26:23.292Z,42.10
2022-10-30T19:29:09.302Z,40.60
2022-10-30T19:34:37.673Z,37.85
2022-10-30T19:37:18.849Z,38.42
2022-10-30T19:39:57.795Z,37.53
2022-10-30T19:42:25.161Z,38.75
2022-10-30T19:45:05.137Z,41.25
2022-10-30T19:47:50.752Z,39.33
2022-10-30T19:50:41.704Z,40.25
2022-10-30T19:53:24.865Z,39.47
2022-10-30T19:56:05.591Z,41.63
2022-10-30T19:58:48.548Z,40.83
2022-10-30T20:04:20.264Z,41.97
2022-10-30T20:07:04.782Z,39.40
2022-10-30T20:09:50.172Z,37.22
2022-10-30T20:12:38.715Z,38.85
2022-10-30T20:15:22.803Z,39.17
2022-10-30T20:20:44.039Z,37.38
2022-10-30T20:23:26.075Z,41.38
2022-10-30T20:26:15.771Z,40.03
2022-10-30T20:28:53.297Z,41.58
2022-10-30T20:31:37.538Z,41.33
2022-10-30T20:34:26.922Z,39.33
2022-10-30T20:37:14.763Z,44.17
2022-10-30T20:40:01.293Z,43.13
2022-10-30T20:42:43.427Z,41.08
2022-10-30T20:45:33.711Z,39.95
2022-10-30T20:48:22.270Z,42.35
2022-10-30T20:51:18.108Z,43.10
2022-10-30T20:53:53.165Z,40.90
2022-10-30T20:56:56.676Z,40.95
2022-10-30T20:59:38.687Z,39.85
2022-10-30T21:02:20.406Z,41.42
2022-10-30T21:05:38.503Z,44.00
2022-10-30T21:08:26.818Z,40.85
2022-10-30T21:11:14.611Z,44.55
2022-10-30T21:13:59.805Z,43.63
2022-10-30T21:16:29.796Z,42.15
2022-10-30T21:19:10.638Z,40.35
2022-10-30T21:21:52.832Z,42.47
2022-10-30T21:24:19.674Z,41.80
2022-10-30T21:27:06.192Z,47.30
2022-10-30T21:29:47.745Z,43.50
2022-10-30T21:32:40.861Z,43.20
2022-10-30T21:35:24.747Z,43.83
2022-10-30T21:38:07.594Z,44.55
2022-10-30T21:40:54.753Z,46.75
2022-10-30T21:43:32.739Z,40.53
2022-10-30T21:46:17.540Z,37.85
2022-10-30T21:48:50.851Z,40.53
2022-10-30T21:51:30.740Z,39.80
2022-10-30T21:54:17.452Z,40.53
2022-10-30T21:56:55.766Z,41.10
2022-10-30T21:59:32.692Z,41.45
2022-10-30T22:02:14.046Z,43.97
2022-10-30T22:04:52.333Z,39.00
2022-10-30T22:07:27.401Z,40.70
2022-10-30T22:10:05.561Z,41.78
2022-10-30T22:12:50.207Z,42.50
2022-10-30T22:15:25.637Z,43.33
2022-10-30T22:18:19.393Z,41.97
2022-10-30T22:21:03.354Z,44.15
2022-10-30T22:23:41.821Z,43.47
2022-10-30T22:26:27.470Z,42.90
2022-10-30T22:29:14.414Z,43.78
2022-10-30T22:31:52.680Z,44.97
2022-10-30T22:34:39.896Z,42.47
2022-10-30T22:37:21.663Z,41.30
2022-10-30T22:39:59.487Z,43.67
2022-10-30T22:46:06.124Z,44.35
2022-10-30T22:48:47.775Z,42.10
2022-10-30T22:51:25.477Z,42.30
2022-10-30T22:54:00.940Z,43.33
2022-10-30T22:56:46.696Z,47.85
2022-10-30T22:59:30.360Z,44.60
2022-10-30T23:02:13.597Z,46.85
2022-10-30T23:04:51.901Z,48.03
2022-10-30T23:07:32.111Z,50.33
2022-10-30T23:10:05.814Z,49.53
2022-10-30T23:15:17.977Z,48.55
2022-10-30T23:17:57.074Z,46.83
2022-10-30T23:20:51.623Z,46.10
2022-10-30T23:23:43.698Z,43.42
2022-10-30T23:26:27.445Z,45.38
2022-10-30T23:29:15.227Z,47.90
2022-10-30T23:31:47.678Z,48.13
2022-10-30T23:34:33.766Z,47.60
2022-10-30T23:37:27.667Z,46.83
2022-10-30T23:40:06.141Z,50.30
2022-10-30T23:42:43.557Z,50.90
2022-10-30T23:45:26.544Z,48.88
2022-10-30T23:48:08.274Z,49.47
2022-10-30T23:50:46.140Z,46.92
2022-10-30T23:53:33.663Z,46.40
2022-10-30T23:56:09.765Z,48.20
2022-10-30T23:58:56.417Z,48.88
